Caribou, California
Current Conditions -  °F | °C
As of 11:53 PM on Thursday 18 Dec 2014 (Local Time) from KOVE Reporting Station
Overcast Overcast  
Wind Chill: 54°   Ceiling: 5000
Heat Index: 54°   Visibility: 10mi
Dew Point: 45°   Wind: 9mph
Humidity: 72%   Direction: 150°SSE
Pressure: 30.17"   Gusts: NA
Location:  40.0464°N, 121.282°W
Report Text: KOVE 190753Z AUTO 15008KT 10SM BKN050 BKN065 OVC095 12/07 A3017 RMK AO2 RAB14E26 SLP217 P0000 T01220072 401500100
Loading
Personal Weather Stations






























Interactive Weather Map New forecast layout! Learn more

10-Day Weather Forecast

Advertisements
Track Severe Weather on mobile